createdAt,value
2022-10-26T00:02:33.248Z,48.10
2022-10-26T00:05:37.565Z,48.65
2022-10-26T00:08:43.406Z,48.35
2022-10-26T00:11:46.957Z,48.37
2022-10-26T00:14:50.461Z,48.58
2022-10-26T00:17:54.085Z,48.49
2022-10-26T00:21:03.729Z,48.34
2022-10-26T00:24:08.910Z,48.72
2022-10-26T00:27:12.488Z,48.38
2022-10-26T00:30:16.494Z,48.76
2022-10-26T00:33:20.179Z,48.47
2022-10-26T00:36:24.433Z,48.67
2022-10-26T00:39:29.481Z,48.69
2022-10-26T00:42:32.991Z,48.92
2022-10-26T00:45:36.662Z,48.73
2022-10-26T00:48:44.467Z,48.92
2022-10-26T00:51:52.131Z,48.97
2022-10-26T00:54:57.717Z,49.08
2022-10-26T00:58:04.955Z,49.08
2022-10-26T01:01:08.728Z,50.06
2022-10-26T01:04:14.063Z,49.37
2022-10-26T01:07:18.203Z,49.55
2022-10-26T01:10:24.546Z,49.73
2022-10-26T01:13:31.469Z,49.69
2022-10-26T01:16:56.735Z,49.70
2022-10-26T01:20:33.580Z,50.43
2022-10-26T01:23:48.252Z,50.46
2022-10-26T01:27:06.759Z,50.64
2022-10-26T01:30:33.716Z,50.86
2022-10-26T01:33:44.476Z,51.12
2022-10-26T01:36:56.413Z,51.05
2022-10-26T01:40:06.865Z,50.87
2022-10-26T01:43:14.837Z,50.69
2022-10-26T01:46:23.115Z,49.76
2022-10-26T01:49:30.176Z,49.87
2022-10-26T01:52:34.198Z,49.63
2022-10-26T01:55:50.025Z,49.32
2022-10-26T01:59:15.302Z,49.22
2022-10-26T02:02:40.443Z,48.54
2022-10-26T02:05:59.462Z,48.70
2022-10-26T02:09:18.233Z,48.10
2022-10-26T02:12:31.264Z,48.05
2022-10-26T02:15:40.786Z,48.73
2022-10-26T02:18:53.399Z,48.22
2022-10-26T02:22:06.177Z,48.07
2022-10-26T02:25:18.161Z,48.62
2022-10-26T02:28:30.585Z,48.27
2022-10-26T02:31:37.782Z,48.34
2022-10-26T02:34:47.456Z,48.37
2022-10-26T02:37:54.387Z,48.57
2022-10-26T02:40:59.400Z,48.19
2022-10-26T02:44:09.859Z,48.44
2022-10-26T02:47:13.978Z,47.90
2022-10-26T02:50:20.942Z,47.93
2022-10-26T02:53:30.396Z,48.46
2022-10-26T02:56:41.725Z,49.06
2022-10-26T02:59:48.830Z,48.94
2022-10-26T03:02:57.342Z,49.79
2022-10-26T03:06:02.626Z,49.32
2022-10-26T03:09:06.341Z,49.60
2022-10-26T03:12:09.925Z,49.02
2022-10-26T03:15:13.843Z,49.00
2022-10-26T03:18:17.505Z,49.45
2022-10-26T03:21:22.717Z,49.62
2022-10-26T03:24:26.597Z,48.37
2022-10-26T03:27:30.172Z,49.31
2022-10-26T03:30:34.246Z,48.80
2022-10-26T03:36:48.101Z,48.79
2022-10-26T03:39:54.056Z,48.78
2022-10-26T03:42:57.722Z,48.77
2022-10-26T03:46:01.465Z,48.78
2022-10-26T03:49:08.106Z,48.94
2022-10-26T03:52:13.375Z,48.91
2022-10-26T03:55:17.726Z,49.33
2022-10-26T03:58:21.483Z,49.59
2022-10-26T04:01:25.340Z,50.07
2022-10-26T04:04:29.372Z,50.41
2022-10-26T04:07:34.605Z,50.54
2022-10-26T04:10:38.486Z,50.89
2022-10-26T04:13:42.197Z,50.86
2022-10-26T04:16:45.873Z,50.75
2022-10-26T04:19:49.422Z,51.12
2022-10-26T04:23:01.024Z,50.62
2022-10-26T04:26:06.485Z,50.61
2022-10-26T04:29:10.276Z,50.45
2022-10-26T04:32:14.056Z,50.07
2022-10-26T04:35:17.985Z,50.14
2022-10-26T04:38:23.132Z,49.70
2022-10-26T04:41:26.962Z,50.00
2022-10-26T04:44:30.765Z,49.57
2022-10-26T04:47:34.363Z,50.14
2022-10-26T04:50:38.583Z,48.99
2022-10-26T04:53:43.564Z,49.07
2022-10-26T04:59:55.985Z,49.00
2022-10-26T05:03:03.168Z,49.43
2022-10-26T05:06:07.167Z,50.10
2022-10-26T05:09:12.287Z,50.34
2022-10-26T05:12:15.963Z,50.38
2022-10-26T05:15:19.655Z,50.64
2022-10-26T05:18:23.419Z,50.54
2022-10-26T05:21:27.256Z,50.21
2022-10-26T05:24:32.283Z,50.38
2022-10-26T05:27:36.085Z,49.71
2022-10-26T05:30:39.726Z,49.22
2022-10-26T05:33:43.422Z,49.11
2022-10-26T05:36:47.059Z,49.46
2022-10-26T05:39:52.266Z,48.78
2022-10-26T05:43:01.392Z,48.78
2022-10-26T05:46:05.233Z,47.87
2022-10-26T05:49:08.937Z,47.44
2022-10-26T05:52:12.696Z,47.22
2022-10-26T05:55:19.657Z,46.72
2022-10-26T05:58:23.922Z,46.34
2022-10-26T06:01:35.896Z,45.74
2022-10-26T06:04:48.164Z,45.69
2022-10-26T06:07:52.672Z,45.24
2022-10-26T06:10:59.642Z,45.00
2022-10-26T06:14:04.006Z,44.49
2022-10-26T06:17:27.676Z,44.19
2022-10-26T06:20:46.503Z,44.35
2022-10-26T06:23:57.342Z,43.78
2022-10-26T06:27:10.331Z,44.14
2022-10-26T06:30:14.505Z,43.95
2022-10-26T06:33:28.751Z,43.20
2022-10-26T06:36:34.702Z,42.58
2022-10-26T06:39:43.823Z,42.30
2022-10-26T06:42:49.786Z,41.50
2022-10-26T06:46:01.530Z,41.37
2022-10-26T06:49:14.012Z,40.72
2022-10-26T06:52:22.776Z,40.82
2022-10-26T06:55:27.637Z,40.70
2022-10-26T06:58:36.663Z,39.90
2022-10-26T07:01:40.359Z,40.56
2022-10-26T07:04:44.673Z,39.92
2022-10-26T07:07:49.962Z,39.96
2022-10-26T07:10:53.864Z,39.08
2022-10-26T07:13:59.023Z,38.96
2022-10-26T07:17:02.722Z,38.45
2022-10-26T07:20:07.557Z,39.03
2022-10-26T07:23:12.395Z,39.32
2022-10-26T07:26:16.154Z,38.82
2022-10-26T07:29:21.273Z,38.49
2022-10-26T07:32:25.176Z,38.39
2022-10-26T07:35:30.702Z,38.29
2022-10-26T07:38:34.383Z,39.29
2022-10-26T07:41:38.236Z,38.31
2022-10-26T07:44:43.622Z,38.52
2022-10-26T07:47:47.566Z,38.13
2022-10-26T07:50:51.266Z,37.97
2022-10-26T07:53:55.174Z,37.59
2022-10-26T07:56:59.706Z,38.25
2022-10-26T08:00:05.979Z,38.64
2022-10-26T08:03:10.017Z,38.25
2022-10-26T08:06:14.938Z,38.17
2022-10-26T08:09:21.056Z,37.70
2022-10-26T08:12:24.895Z,37.91
2022-10-26T08:15:31.995Z,37.45
2022-10-26T08:18:35.636Z,37.36
2022-10-26T08:21:40.493Z,36.93
2022-10-26T08:24:46.978Z,36.81
2022-10-26T08:27:50.904Z,36.16
2022-10-26T08:30:56.382Z,36.07
2022-10-26T08:34:00.608Z,35.53
2022-10-26T08:37:04.508Z,35.48
2022-10-26T08:40:11.747Z,34.93
2022-10-26T08:43:21.206Z,35.25
2022-10-26T08:46:32.118Z,34.47
2022-10-26T08:49:44.893Z,34.14
2022-10-26T08:52:53.313Z,34.21
2022-10-26T08:56:01.266Z,33.97
2022-10-26T08:59:13.822Z,33.96
2022-10-26T09:02:19.422Z,33.51
2022-10-26T09:05:33.390Z,33.90
2022-10-26T09:08:52.482Z,33.69
2022-10-26T09:12:07.133Z,33.40
2022-10-26T09:15:20.234Z,32.55
2022-10-26T09:18:38.848Z,32.52
2022-10-26T09:21:49.917Z,32.30
2022-10-26T09:24:56.558Z,32.17
2022-10-26T09:28:03.383Z,31.46
2022-10-26T09:31:07.225Z,32.25
2022-10-26T09:34:22.246Z,32.30
2022-10-26T09:37:29.922Z,31.95
2022-10-26T09:40:38.203Z,32.09
2022-10-26T09:43:50.384Z,31.04
2022-10-26T09:47:00.093Z,31.56
2022-10-26T09:50:17.496Z,30.92
2022-10-26T09:53:21.283Z,30.39
2022-10-26T09:56:26.535Z,30.39
2022-10-26T09:59:34.816Z,31.02
2022-10-26T10:02:44.330Z,30.40
2022-10-26T10:05:52.121Z,30.42
2022-10-26T10:09:10.687Z,29.97
2022-10-26T10:12:23.888Z,29.80
2022-10-26T10:15:27.922Z,30.34
2022-10-26T10:18:31.805Z,29.68
2022-10-26T10:21:40.572Z,30.38
2022-10-26T10:24:54.202Z,30.23
2022-10-26T10:27:57.946Z,29.80
2022-10-26T10:31:03.425Z,29.91
2022-10-26T10:34:18.155Z,29.31
2022-10-26T10:37:28.952Z,29.46
2022-10-26T10:40:33.406Z,29.43
2022-10-26T10:43:37.501Z,29.61
2022-10-26T10:46:41.243Z,29.79
2022-10-26T10:49:54.702Z,28.90
2022-10-26T10:53:21.933Z,28.88
2022-10-26T10:56:34.506Z,29.03
2022-10-26T10:59:49.225Z,28.79
2022-10-26T11:03:34.755Z,28.51
2022-10-26T11:06:41.422Z,28.48
2022-10-26T11:09:49.989Z,28.64
2022-10-26T11:12:59.571Z,28.34
2022-10-26T11:16:05.883Z,28.33
2022-10-26T11:19:19.964Z,28.00
2022-10-26T11:22:27.902Z,27.97
2022-10-26T11:25:38.562Z,27.90
2022-10-26T11:28:50.210Z,27.40
2022-10-26T11:31:59.212Z,27.70
2022-10-26T11:35:13.525Z,27.11
2022-10-26T11:38:38.782Z,27.23
2022-10-26T11:41:54.994Z,27.79
2022-10-26T11:45:05.666Z,27.37
2022-10-26T11:48:17.342Z,27.29
2022-10-26T11:51:34.733Z,27.58
2022-10-26T11:54:45.225Z,27.53
2022-10-26T11:57:53.000Z,28.17
2022-10-26T12:01:02.236Z,27.68
2022-10-26T12:04:06.211Z,27.96
2022-10-26T12:07:15.035Z,27.37
2022-10-26T12:10:27.596Z,27.74
2022-10-26T12:13:39.383Z,28.19
2022-10-26T12:16:52.563Z,27.99
2022-10-26T12:20:02.657Z,27.91
2022-10-26T12:23:07.875Z,27.83
2022-10-26T12:26:50.945Z,29.29
2022-10-26T12:30:17.148Z,28.98
2022-10-26T12:33:30.875Z,29.43
2022-10-26T12:36:50.765Z,29.15
2022-10-26T12:39:54.475Z,29.68
2022-10-26T12:42:58.882Z,30.13
2022-10-26T12:46:42.392Z,29.67
2022-10-26T12:50:02.815Z,29.60
2022-10-26T12:53:12.136Z,30.22
2022-10-26T12:56:21.695Z,30.08
2022-10-26T12:59:35.206Z,30.73
2022-10-26T13:02:53.633Z,30.08
2022-10-26T13:06:24.515Z,29.98
2022-10-26T13:09:33.237Z,29.93
2022-10-26T13:12:47.329Z,30.24
2022-10-26T13:15:55.862Z,30.63
2022-10-26T13:19:00.962Z,30.06
2022-10-26T13:22:06.271Z,30.89
2022-10-26T13:25:23.412Z,30.43
2022-10-26T13:28:44.003Z,30.28
2022-10-26T13:31:58.156Z,30.72
2022-10-26T13:35:03.912Z,30.93
2022-10-26T13:38:12.444Z,31.00
2022-10-26T13:41:24.277Z,30.75
2022-10-26T13:44:32.592Z,30.81
2022-10-26T13:47:44.937Z,30.41
2022-10-26T13:50:53.081Z,30.79
2022-10-26T13:54:03.346Z,31.01
2022-10-26T13:57:20.804Z,31.21
2022-10-26T14:00:24.842Z,31.19
2022-10-26T14:03:29.168Z,31.10
2022-10-26T14:06:35.906Z,31.42
2022-10-26T14:09:41.203Z,31.49
2022-10-26T14:12:45.111Z,31.52
2022-10-26T14:15:49.245Z,31.44
2022-10-26T14:18:52.962Z,31.67
2022-10-26T14:21:57.563Z,31.67
2022-10-26T14:25:02.802Z,31.85
2022-10-26T14:28:22.906Z,32.00
2022-10-26T14:31:29.507Z,32.05
2022-10-26T14:34:33.406Z,32.23
2022-10-26T14:37:41.935Z,32.17
2022-10-26T14:40:47.767Z,32.47
2022-10-26T14:43:51.955Z,32.55
2022-10-26T14:46:55.896Z,32.21
2022-10-26T14:53:16.557Z,32.55
2022-10-26T14:56:26.174Z,32.70
2022-10-26T14:59:32.842Z,33.21
2022-10-26T15:02:36.836Z,33.11
2022-10-26T15:05:40.633Z,32.95
2022-10-26T15:08:56.832Z,32.95
2022-10-26T15:12:04.242Z,33.26
2022-10-26T15:18:29.147Z,33.29
2022-10-26T15:21:40.285Z,33.43
2022-10-26T15:24:43.996Z,34.20
2022-10-26T15:27:49.636Z,34.29
2022-10-26T15:31:06.353Z,34.43
2022-10-26T15:34:15.832Z,34.50
2022-10-26T15:37:19.657Z,34.12
2022-10-26T15:40:23.786Z,34.58
2022-10-26T15:43:29.142Z,34.65
2022-10-26T15:46:36.716Z,34.66
2022-10-26T15:49:40.467Z,34.90
2022-10-26T15:52:46.793Z,35.32
2022-10-26T15:55:54.203Z,35.06
2022-10-26T15:58:59.825Z,35.58
2022-10-26T16:02:03.735Z,35.78
2022-10-26T16:05:08.626Z,35.46
2022-10-26T16:08:18.014Z,36.02
2022-10-26T16:11:23.595Z,36.03
2022-10-26T16:14:33.380Z,36.19
2022-10-26T16:17:37.376Z,36.22
2022-10-26T16:20:41.509Z,35.93
2022-10-26T16:23:50.493Z,35.93
2022-10-26T16:26:54.303Z,36.58
2022-10-26T16:29:59.447Z,36.76
2022-10-26T16:33:03.195Z,36.77
2022-10-26T16:36:08.024Z,36.81
2022-10-26T16:39:13.743Z,36.87
2022-10-26T16:42:17.591Z,36.70
2022-10-26T16:45:22.722Z,37.08
2022-10-26T16:48:26.956Z,37.00
2022-10-26T16:51:30.646Z,37.04
2022-10-26T16:54:34.446Z,37.52
2022-10-26T16:57:38.765Z,37.21
2022-10-26T17:00:44.198Z,37.12
2022-10-26T17:03:48.504Z,37.60
2022-10-26T17:06:52.537Z,37.56
2022-10-26T17:09:56.497Z,38.44
2022-10-26T17:13:00.357Z,38.31
2022-10-26T17:16:07.003Z,38.24
2022-10-26T17:19:12.995Z,38.70
2022-10-26T17:22:16.756Z,37.90
2022-10-26T17:25:20.503Z,38.00
2022-10-26T17:28:24.626Z,38.36
2022-10-26T17:31:32.652Z,38.66
2022-10-26T17:34:36.456Z,38.46
2022-10-26T17:37:41.095Z,38.67
2022-10-26T17:40:44.842Z,38.88
2022-10-26T17:43:49.862Z,39.38
2022-10-26T17:46:55.152Z,38.96
2022-10-26T17:49:58.855Z,39.58
2022-10-26T17:53:02.623Z,39.60
2022-10-26T17:56:08.622Z,39.63
2022-10-26T17:59:13.642Z,40.16
2022-10-26T18:02:18.911Z,40.02
2022-10-26T18:05:22.636Z,40.24
2022-10-26T18:08:26.447Z,39.73
2022-10-26T18:14:38.776Z,41.15
2022-10-26T18:17:45.308Z,41.30
2022-10-26T18:20:49.151Z,41.48
2022-10-26T18:23:54.222Z,41.74
2022-10-26T18:26:58.342Z,41.50
2022-10-26T18:30:02.153Z,42.28
2022-10-26T18:33:07.363Z,41.46
2022-10-26T18:36:12.995Z,41.81
2022-10-26T18:39:16.767Z,41.57
2022-10-26T18:42:20.516Z,42.25
2022-10-26T18:45:24.188Z,42.33
2022-10-26T18:48:29.413Z,42.40
2022-10-26T18:51:35.522Z,42.38
2022-10-26T18:54:39.371Z,42.38
2022-10-26T18:57:43.066Z,42.64
2022-10-26T19:00:46.998Z,42.23
2022-10-26T19:03:56.325Z,41.98
2022-10-26T19:07:01.763Z,41.76
2022-10-26T19:10:06.096Z,42.42
2022-10-26T19:13:09.804Z,42.99
2022-10-26T19:16:26.953Z,42.26
2022-10-26T19:19:42.342Z,42.33
2022-10-26T19:22:46.101Z,42.45
2022-10-26T19:25:56.716Z,41.96
2022-10-26T19:29:01.976Z,42.25
2022-10-26T19:32:06.075Z,42.16
2022-10-26T19:35:11.704Z,42.37
2022-10-26T19:38:15.555Z,42.80
2022-10-26T19:41:19.646Z,43.06
2022-10-26T19:44:25.564Z,42.56
2022-10-26T19:47:29.536Z,42.41
2022-10-26T19:50:34.703Z,42.59
2022-10-26T19:53:38.303Z,43.02
2022-10-26T19:56:41.974Z,42.76
2022-10-26T19:59:45.744Z,42.96
2022-10-26T20:02:49.891Z,43.44
2022-10-26T20:05:57.136Z,43.92
2022-10-26T20:09:02.640Z,43.00
2022-10-26T20:12:07.511Z,43.20
2022-10-26T20:15:11.492Z,43.28
2022-10-26T20:18:15.506Z,43.22
2022-10-26T20:21:21.636Z,43.46
2022-10-26T20:24:28.617Z,43.31
2022-10-26T20:27:32.355Z,43.52
2022-10-26T20:30:37.962Z,44.81
2022-10-26T20:33:41.666Z,44.38
2022-10-26T20:36:46.802Z,44.88
2022-10-26T20:39:53.443Z,44.88
2022-10-26T20:42:57.789Z,45.78
2022-10-26T20:46:02.026Z,46.93
2022-10-26T20:49:06.103Z,46.66
2022-10-26T20:52:21.263Z,46.14
2022-10-26T20:55:32.583Z,46.15
2022-10-26T20:58:41.636Z,45.91
2022-10-26T21:01:45.456Z,45.73
2022-10-26T21:04:49.386Z,45.28
2022-10-26T21:11:02.974Z,45.19
2022-10-26T21:14:07.307Z,45.51
2022-10-26T21:17:12.102Z,45.40
2022-10-26T21:20:16.359Z,45.26
2022-10-26T21:23:22.135Z,45.39
2022-10-26T21:26:26.176Z,45.91
2022-10-26T21:29:30.448Z,45.67
2022-10-26T21:32:34.685Z,45.68
2022-10-26T21:35:38.863Z,45.18
2022-10-26T21:38:46.018Z,45.16
2022-10-26T21:41:50.260Z,45.29
2022-10-26T21:44:54.429Z,45.47
2022-10-26T21:47:58.799Z,45.40
2022-10-26T21:51:03.428Z,45.64
2022-10-26T21:54:09.321Z,45.62
2022-10-26T21:57:13.544Z,45.24
2022-10-26T22:03:50.267Z,45.99
2022-10-26T22:06:58.047Z,46.40
2022-10-26T22:10:11.178Z,46.26
2022-10-26T22:13:16.279Z,46.43
2022-10-26T22:16:22.794Z,47.09
2022-10-26T22:19:27.101Z,46.90
2022-10-26T22:22:31.533Z,47.21
2022-10-26T22:25:37.192Z,46.62
2022-10-26T22:28:43.585Z,47.68
2022-10-26T22:31:47.786Z,47.16
2022-10-26T22:35:00.304Z,46.83
2022-10-26T22:38:14.902Z,46.56
2022-10-26T22:41:21.611Z,46.59
2022-10-26T22:44:26.001Z,46.94
2022-10-26T22:47:30.492Z,46.02
2022-10-26T22:50:34.680Z,46.32
2022-10-26T22:53:39.072Z,46.47
2022-10-26T22:56:44.801Z,46.16
2022-10-26T22:59:48.989Z,46.29
2022-10-26T23:02:53.131Z,45.86
2022-10-26T23:05:57.723Z,46.23
2022-10-26T23:09:01.962Z,46.61
2022-10-26T23:12:07.822Z,46.71
2022-10-26T23:15:12.610Z,46.34
2022-10-26T23:18:16.702Z,47.31
2022-10-26T23:21:21.380Z,48.27
2022-10-26T23:24:25.563Z,48.62
2022-10-26T23:27:30.742Z,49.90
2022-10-26T23:30:34.567Z,50.79
2022-10-26T23:33:38.203Z,50.63
2022-10-26T23:36:41.897Z,50.79
2022-10-26T23:39:45.603Z,50.63
2022-10-26T23:42:50.901Z,50.41
2022-10-26T23:45:55.436Z,50.26
2022-10-26T23:48:59.059Z,49.25
2022-10-26T23:52:02.897Z,49.02
2022-10-26T23:55:07.278Z,49.66
2022-10-26T23:58:15.163Z,49.82
